Time;durP1;ratioP1;P1;durP2;ratioP2;P2;SDS_P1;SDS_P2;PMS_P1;PMS_P2;Temp;Humidity;BMP_temperature;BMP_pressure;BME280_temperature;BME280_humidity;BME280_pressure;Samples;Min_cycle;Max_cycle;Signal;HPM_P1;HPM_P2
2022/08/30 00:01:33;;;;;;;5.75;3.88;;;14.40;99.90;;;;;;5039917;28;20047;-87
2022/08/30 00:04:00;;;;;;;6.65;3.95;;;14.40;99.90;;;;;;5037299;28;20055;-82
2022/08/30 00:06:27;;;;;;;5.13;4.10;;;14.40;99.90;;;;;;5046474;28;20059;-81
2022/08/30 00:08:54;;;;;;;5.95;3.70;;;14.40;99.90;;;;;;5037497;28;20041;-82
2022/08/30 00:11:23;;;;;;;6.00;3.90;;;14.30;99.90;;;;;;5025845;28;20041;-86
2022/08/30 00:13:51;;;;;;;4.40;4.00;;;14.20;99.90;;;;;;5033849;28;20120;-86
2022/08/30 00:16:18;;;;;;;3.38;2.50;;;14.10;99.90;;;;;;5040910;28;20808;-81
2022/08/30 00:18:44;;;;;;;2.30;1.85;;;14.10;99.90;;;;;;5030421;28;20028;-82
2022/08/30 00:21:11;;;;;;;2.03;1.40;;;14.20;99.90;;;;;;5037852;28;20055;-83
2022/08/30 00:23:37;;;;;;;2.17;1.75;;;14.20;99.90;;;;;;5025682;28;20522;-82
2022/08/30 00:26:04;;;;;;;2.22;1.83;;;14.20;99.90;;;;;;5026982;28;20033;-81
2022/08/30 00:28:31;;;;;;;2.05;1.75;;;14.20;99.90;;;;;;5030855;28;20029;-85
2022/08/30 00:30:56;;;;;;;3.75;2.03;;;14.30;99.90;;;;;;5025581;28;20242;-87
2022/08/30 00:33:22;;;;;;;3.33;2.80;;;14.30;99.90;;;;;;5009873;28;20033;-81
2022/08/30 00:35:49;;;;;;;3.63;2.90;;;14.30;99.90;;;;;;5020399;28;20124;-81
2022/08/30 00:38:14;;;;;;;4.55;2.40;;;14.20;99.90;;;;;;5025803;28;20415;-86
2022/08/30 00:40:43;;;;;;;3.15;2.70;;;14.20;99.90;;;;;;5026144;28;20090;-86
2022/08/30 00:43:14;;;;;;;4.82;3.10;;;14.20;99.90;;;;;;5026660;28;20056;-82
2022/08/30 00:45:39;;;;;;;4.53;3.30;;;14.20;99.90;;;;;;5007277;28;20041;-82
2022/08/30 00:48:06;;;;;;;3.40;2.72;;;14.20;99.90;;;;;;5026835;28;20045;-87
2022/08/30 00:50:37;;;;;;;3.45;2.80;;;14.20;99.90;;;;;;5027448;28;20032;-83
2022/08/30 00:53:07;;;;;;;3.20;2.65;;;14.20;99.90;;;;;;5026322;28;20127;-81
2022/08/30 00:55:34;;;;;;;3.63;2.58;;;14.20;99.90;;;;;;5013638;28;20178;-81
2022/08/30 00:58:03;;;;;;;2.53;1.73;;;14.20;99.90;;;;;;5028811;28;20044;-84
2022/08/30 01:00:29;;;;;;;1.98;1.77;;;14.20;99.90;;;;;;5045592;28;20119;-80
2022/08/30 01:02:54;;;;;;;2.38;1.70;;;14.20;99.90;;;;;;5037924;28;20037;-81
2022/08/30 01:05:22;;;;;;;2.40;2.10;;;14.20;99.90;;;;;;5041483;28;20068;-82
2022/08/30 01:07:48;;;;;;;3.03;2.70;;;14.20;99.90;;;;;;5052366;28;20111;-82
2022/08/30 01:10:15;;;;;;;2.70;2.00;;;14.20;99.90;;;;;;5045234;28;20044;-82
2022/08/30 01:12:42;;;;;;;1.90;1.70;;;14.20;99.90;;;;;;5039640;28;20416;-82
2022/08/30 01:15:11;;;;;;;1.60;1.30;;;14.20;99.90;;;;;;5059180;28;20111;-82
2022/08/30 01:17:37;;;;;;;2.30;2.10;;;14.20;99.90;;;;;;5041462;28;20045;-81
2022/08/30 01:20:12;;;;;;;2.63;2.30;;;14.20;99.90;;;;;;5047047;28;20044;-81
2022/08/30 01:22:47;;;;;;;2.45;2.10;;;14.20;99.90;;;;;;5050083;28;20091;-82
2022/08/30 01:25:22;;;;;;;1.52;1.20;;;14.20;99.90;;;;;;5051726;28;20503;-82
2022/08/30 01:28:02;;;;;;;2.13;1.10;;;14.20;99.90;;;;;;5040898;28;20053;-82
2022/08/30 01:30:29;;;;;;;1.35;1.08;;;14.20;99.90;;;;;;5041548;28;20454;-81
2022/08/30 01:32:58;;;;;;;2.05;1.85;;;14.20;99.90;;;;;;5052154;28;20045;-81
2022/08/30 01:35:24;;;;;;;2.40;1.95;;;14.20;99.90;;;;;;5047411;28;20064;-81
2022/08/30 01:37:50;;;;;;;3.38;2.80;;;14.20;99.90;;;;;;5046768;28;20048;-81
2022/08/30 01:40:16;;;;;;;2.65;2.40;;;14.20;99.90;;;;;;5044311;28;20040;-81
2022/08/30 01:42:41;;;;;;;2.50;2.00;;;14.20;99.90;;;;;;5031302;28;20405;-82
2022/08/30 01:45:08;;;;;;;3.30;2.17;;;14.20;99.90;;;;;;5051586;28;20422;-84
2022/08/30 01:47:34;;;;;;;2.50;2.10;;;14.20;99.90;;;;;;5051671;28;20037;-82
2022/08/30 01:50:00;;;;;;;2.38;2.10;;;14.20;99.90;;;;;;5034120;28;20482;-83
2022/08/30 01:52:26;;;;;;;2.92;2.28;;;14.20;99.90;;;;;;5052608;28;20049;-84
2022/08/30 01:54:51;;;;;;;2.72;2.35;;;14.20;99.90;;;;;;5050758;28;20536;-83
2022/08/30 01:57:20;;;;;;;3.25;2.47;;;14.30;99.90;;;;;;5050339;28;20128;-81
2022/08/30 01:59:48;;;;;;;2.20;2.00;;;14.20;99.90;;;;;;5047760;28;20091;-82
2022/08/30 02:02:16;;;;;;;2.80;2.50;;;14.30;99.90;;;;;;5045870;28;20041;-82
2022/08/30 02:04:43;;;;;;;3.65;2.58;;;14.30;99.90;;;;;;5049937;28;20049;-82
2022/08/30 02:07:10;;;;;;;3.05;2.50;;;14.30;99.90;;;;;;5037776;28;20172;-81
2022/08/30 02:09:38;;;;;;;4.50;2.90;;;14.30;99.90;;;;;;5031925;28;20033;-82
2022/08/30 02:12:06;;;;;;;3.67;3.03;;;14.30;99.90;;;;;;5051305;28;20376;-82
2022/08/30 02:14:31;;;;;;;4.78;2.70;;;14.30;99.90;;;;;;5026437;28;20029;-82
2022/08/30 02:16:57;;;;;;;3.97;2.55;;;14.40;99.90;;;;;;5051327;28;20602;-82
2022/08/30 02:19:23;;;;;;;2.60;2.38;;;14.30;99.90;;;;;;5051806;28;20052;-82
2022/08/30 02:21:49;;;;;;;4.90;2.78;;;14.40;99.90;;;;;;5051796;28;20077;-82
2022/08/30 02:24:14;;;;;;;3.47;2.60;;;14.40;99.90;;;;;;5052244;28;20067;-84
2022/08/30 02:26:41;;;;;;;3.67;2.90;;;14.40;99.90;;;;;;5051937;28;20037;-82
2022/08/30 02:29:07;;;;;;;3.13;2.42;;;14.40;99.90;;;;;;5051681;28;20033;-84
2022/08/30 02:31:33;;;;;;;4.20;2.70;;;14.40;99.90;;;;;;5049953;28;20029;-84
2022/08/30 02:33:59;;;;;;;4.07;2.70;;;14.40;99.90;;;;;;5051731;28;20029;-82
2022/08/30 02:36:26;;;;;;;3.55;2.70;;;14.40;99.90;;;;;;5045703;28;20043;-82
2022/08/30 02:38:51;;;;;;;4.28;2.70;;;14.40;99.90;;;;;;5048136;28;20518;-82
2022/08/30 02:41:18;;;;;;;2.80;2.40;;;14.30;99.90;;;;;;5036528;28;20076;-84
2022/08/30 02:43:44;;;;;;;2.65;2.05;;;14.40;99.90;;;;;;5037337;28;20045;-85
2022/08/30 02:46:10;;;;;;;2.05;1.65;;;14.30;99.90;;;;;;5026702;28;20064;-82
2022/08/30 02:48:36;;;;;;;3.30;2.40;;;14.30;99.90;;;;;;5048699;28;20033;-82
2022/08/30 02:51:07;;;;;;;3.08;2.50;;;14.30;99.90;;;;;;5051870;28;20095;-85
2022/08/30 02:53:32;;;;;;;3.25;2.33;;;14.30;99.90;;;;;;5050139;28;20043;-82
2022/08/30 02:55:58;;;;;;;2.85;2.60;;;14.20;99.90;;;;;;5046143;28;20124;-82
2022/08/30 02:58:24;;;;;;;2.55;2.30;;;14.20;99.90;;;;;;5033519;28;20036;-82
2022/08/30 03:00:49;;;;;;;3.22;2.10;;;14.30;99.90;;;;;;5038258;28;20490;-83
2022/08/30 03:03:15;;;;;;;2.90;2.03;;;14.20;99.90;;;;;;5048504;28;20454;-81
2022/08/30 03:05:41;;;;;;;2.63;2.22;;;14.20;99.90;;;;;;5049640;28;20033;-82
2022/08/30 03:08:08;;;;;;;3.85;2.63;;;14.20;99.90;;;;;;5051770;28;20036;-81
2022/08/30 03:10:34;;;;;;;2.60;2.40;;;14.20;99.90;;;;;;5043498;28;20037;-81
2022/08/30 03:13:00;;;;;;;2.40;2.20;;;14.10;99.90;;;;;;5051701;28;20072;-81
2022/08/30 03:15:26;;;;;;;2.97;2.42;;;14.10;99.90;;;;;;5039265;28;20038;-82
2022/08/30 03:17:54;;;;;;;2.60;2.40;;;14.00;99.90;;;;;;5031955;28;20065;-83
2022/08/30 03:20:23;;;;;;;2.10;1.83;;;14.00;99.90;;;;;;5038276;28;20049;-81
2022/08/30 03:22:48;;;;;;;2.40;2.20;;;13.90;99.90;;;;;;5045572;28;20095;-84
2022/08/30 03:25:14;;;;;;;3.13;2.20;;;13.90;99.90;;;;;;5044241;28;20507;-81
2022/08/30 03:27:40;;;;;;;5.95;2.45;;;13.80;99.90;;;;;;5051490;28;20033;-82
2022/08/30 03:30:07;;;;;;;3.08;1.92;;;13.80;99.90;;;;;;5047679;28;20383;-82
2022/08/30 03:32:34;;;;;;;2.55;1.90;;;13.80;99.90;;;;;;5045926;28;20048;-84
2022/08/30 03:34:59;;;;;;;2.72;1.90;;;13.70;99.90;;;;;;5042847;28;20060;-82
2022/08/30 03:37:26;;;;;;;3.22;2.33;;;13.70;99.90;;;;;;5053940;28;20072;-83
2022/08/30 03:39:53;;;;;;;4.15;2.40;;;13.60;99.90;;;;;;5054236;28;20037;-82
2022/08/30 03:42:18;;;;;;;2.83;2.33;;;13.60;99.90;;;;;;5048560;28;20074;-81
2022/08/30 03:44:44;;;;;;;3.85;2.30;;;13.60;99.90;;;;;;5049763;28;20533;-84
2022/08/30 03:47:10;;;;;;;4.03;2.13;;;13.60;99.90;;;;;;5054319;28;20582;-82
2022/08/30 03:49:36;;;;;;;5.00;2.60;;;13.50;99.90;;;;;;5027632;28;20036;-82
2022/08/30 03:52:02;;;;;;;3.97;2.42;;;13.50;99.90;;;;;;5029522;28;20511;-83
2022/08/30 03:54:27;;;;;;;6.05;2.70;;;13.50;99.90;;;;;;5047227;28;20063;-83
2022/08/30 03:56:53;;;;;;;4.70;2.47;;;13.40;99.90;;;;;;5050101;28;20048;-81
2022/08/30 03:59:18;;;;;;;3.13;2.15;;;13.40;99.90;;;;;;5053594;28;20033;-81
2022/08/30 04:01:47;;;;;;;2.70;1.65;;;13.40;99.90;;;;;;5053573;28;20095;-82
2022/08/30 04:04:13;;;;;;;2.47;1.90;;;13.30;99.90;;;;;;5036153;28;20119;-81
2022/08/30 04:06:39;;;;;;;5.63;2.47;;;13.30;99.90;;;;;;5036512;28;20091;-81
2022/08/30 04:09:05;;;;;;;3.97;2.45;;;13.30;99.90;;;;;;5049622;28;20037;-81
2022/08/30 04:11:31;;;;;;;3.15;2.65;;;13.30;99.90;;;;;;5046731;28;20091;-81
2022/08/30 04:13:56;;;;;;;4.55;2.88;;;13.30;99.90;;;;;;5042218;28;20040;-81
2022/08/30 04:16:23;;;;;;;4.25;3.10;;;13.20;99.90;;;;;;5049335;28;20093;-81
2022/08/30 04:18:49;;;;;;;4.75;3.42;;;13.20;99.90;;;;;;5052573;28;20075;-82
2022/08/30 04:21:15;;;;;;;5.35;3.50;;;13.20;99.90;;;;;;5050500;28;20076;-80
2022/08/30 04:23:41;;;;;;;6.47;3.75;;;13.20;99.90;;;;;;5051681;28;20131;-85
2022/08/30 04:26:08;;;;;;;4.55;3.20;;;13.10;99.90;;;;;;5053300;28;20115;-81
2022/08/30 04:28:34;;;;;;;4.45;3.50;;;13.20;99.90;;;;;;5052954;28;20040;-82
2022/08/30 04:31:14;;;;;;;5.43;3.10;;;13.10;99.90;;;;;;5053413;28;20037;-81
2022/08/30 04:33:41;;;;;;;3.72;2.80;;;13.10;99.90;;;;;;5054035;28;20554;-81
2022/08/30 04:36:08;;;;;;;3.22;2.70;;;13.10;99.90;;;;;;5053748;28;20072;-81
2022/08/30 04:38:35;;;;;;;4.28;2.90;;;13.00;99.90;;;;;;5054488;28;20045;-81
2022/08/30 04:41:01;;;;;;;3.97;3.22;;;12.90;99.90;;;;;;5053063;28;20410;-83
2022/08/30 04:43:27;;;;;;;7.45;4.10;;;12.90;99.90;;;;;;5044639;28;20041;-81
2022/08/30 04:45:54;;;;;;;3.25;2.72;;;12.90;99.90;;;;;;5052854;28;20032;-80
2022/08/30 04:48:21;;;;;;;2.75;2.20;;;12.80;99.90;;;;;;5050120;28;20123;-82
2022/08/30 04:50:47;;;;;;;3.10;2.30;;;12.80;99.90;;;;;;5050742;28;20036;-80
2022/08/30 04:53:13;;;;;;;3.67;2.10;;;12.80;99.90;;;;;;5049951;28;20044;-80
2022/08/30 04:55:42;;;;;;;2.60;2.40;;;12.80;99.90;;;;;;5045494;28;20434;-80
2022/08/30 04:58:08;;;;;;;3.30;2.80;;;12.80;99.90;;;;;;5051914;28;20045;-83
2022/08/30 05:00:34;;;;;;;3.45;2.35;;;12.70;99.90;;;;;;5051447;28;20490;-80
2022/08/30 05:02:59;;;;;;;2.95;2.65;;;12.70;99.90;;;;;;5048679;28;20041;-83
2022/08/30 05:05:40;;;;;;;3.60;2.92;;;12.70;99.90;;;;;;5028364;28;20076;-81
2022/08/30 05:08:14;;;;;;;3.78;3.17;;;12.70;99.90;;;;;;5048754;28;20116;-82
2022/08/30 05:10:45;;;;;;;4.22;3.83;;;12.70;99.90;;;;;;5050362;28;20044;-82
2022/08/30 05:13:11;;;;;;;5.97;4.35;;;12.70;99.90;;;;;;5036088;28;20529;-81
2022/08/30 05:15:39;;;;;;;7.60;4.25;;;12.80;99.90;;;;;;5051018;28;20029;-81
2022/08/30 05:18:06;;;;;;;4.78;4.13;;;12.70;99.90;;;;;;5049578;28;20131;-82
2022/08/30 05:20:33;;;;;;;7.40;4.00;;;12.80;99.90;;;;;;5051069;28;20041;-80
2022/08/30 05:22:59;;;;;;;5.25;3.97;;;12.70;99.90;;;;;;5050993;28;20402;-79
2022/08/30 05:25:29;;;;;;;4.40;3.58;;;12.80;99.90;;;;;;5044557;28;20036;-81
2022/08/30 05:27:55;;;;;;;7.22;4.00;;;12.90;99.90;;;;;;5049514;28;20045;-82
2022/08/30 05:30:22;;;;;;;5.13;3.80;;;13.00;99.90;;;;;;5037051;28;20041;-82
2022/08/30 05:32:48;;;;;;;5.82;4.13;;;13.10;99.90;;;;;;5022985;28;20037;-81
2022/08/30 05:35:16;;;;;;;6.50;4.00;;;13.20;99.90;;;;;;5033461;28;20514;-81
2022/08/30 05:37:42;;;;;;;5.90;4.50;;;13.30;99.90;;;;;;5051000;28;20505;-82
2022/08/30 05:40:09;;;;;;;6.35;4.10;;;13.40;99.90;;;;;;5049027;28;20040;-82
2022/08/30 05:42:35;;;;;;;6.30;4.20;;;13.50;99.90;;;;;;5049115;28;20045;-82
2022/08/30 05:45:02;;;;;;;7.55;4.30;;;13.70;99.90;;;;;;5050842;28;20395;-82
2022/08/30 05:47:27;;;;;;;9.18;4.80;;;13.80;99.90;;;;;;5034477;28;20041;-82
2022/08/30 05:49:53;;;;;;;7.75;4.78;;;13.90;99.90;;;;;;5051113;28;20384;-83
2022/08/30 05:52:18;;;;;;;5.50;4.32;;;14.00;99.90;;;;;;5050750;28;20039;-81
2022/08/30 05:54:45;;;;;;;6.22;4.68;;;14.10;99.90;;;;;;5037684;28;20558;-83
2022/08/30 05:57:10;;;;;;;5.45;4.68;;;14.20;99.90;;;;;;5048717;28;20097;-82
2022/08/30 05:59:36;;;;;;;6.63;4.35;;;14.30;99.90;;;;;;5046379;28;20072;-82
2022/08/30 06:02:02;;;;;;;7.75;4.60;;;14.40;99.90;;;;;;5046775;28;20045;-82
2022/08/30 06:04:28;;;;;;;7.13;4.43;;;14.50;99.90;;;;;;5051826;28;20097;-82
2022/08/30 06:06:53;;;;;;;7.13;4.47;;;14.70;99.90;;;;;;5049230;28;20029;-84
2022/08/30 06:09:19;;;;;;;5.88;3.85;;;14.70;99.90;;;;;;5051279;28;20570;-82
2022/08/30 06:11:45;;;;;;;7.80;4.70;;;14.90;99.90;;;;;;5051316;28;20035;-81
2022/08/30 06:14:11;;;;;;;4.95;3.95;;;15.00;99.90;;;;;;5047574;28;20568;-82
2022/08/30 06:16:38;;;;;;;6.95;4.10;;;15.10;99.90;;;;;;5049443;28;20051;-81
2022/08/30 06:19:07;;;;;;;8.45;4.28;;;15.20;99.90;;;;;;5030208;28;20037;-80
2022/08/30 06:21:35;;;;;;;5.20;3.42;;;15.40;99.90;;;;;;5051008;28;20049;-81
2022/08/30 06:24:02;;;;;;;4.63;3.55;;;15.50;99.90;;;;;;5049704;28;20558;-81
2022/08/30 06:26:29;;;;;;;8.13;3.55;;;15.60;99.90;;;;;;5049752;28;20095;-81
2022/08/30 06:28:56;;;;;;;3.97;3.25;;;15.70;99.90;;;;;;5047946;28;20071;-85
2022/08/30 06:31:24;;;;;;;4.85;3.05;;;15.80;99.90;;;;;;5045315;28;20033;-82
2022/08/30 06:33:50;;;;;;;5.53;3.20;;;15.90;99.90;;;;;;5049650;28;20028;-81
2022/08/30 06:36:20;;;;;;;4.60;2.95;;;16.00;99.90;;;;;;5049481;28;20470;-80
2022/08/30 06:38:49;;;;;;;5.07;2.90;;;16.10;99.90;;;;;;5050018;28;20470;-81
2022/08/30 06:41:18;;;;;;;4.72;2.80;;;16.20;99.90;;;;;;5030565;28;20049;-80
2022/08/30 06:43:44;;;;;;;7.63;2.80;;;16.30;99.90;;;;;;5049860;28;20120;-88
2022/08/30 06:46:12;;;;;;;3.72;2.60;;;16.40;99.90;;;;;;5046580;28;20124;-81
2022/08/30 06:48:38;;;;;;;5.90;3.17;;;16.50;99.90;;;;;;5049159;28;20043;-80
2022/08/30 06:51:05;;;;;;;6.10;2.83;;;16.60;99.90;;;;;;5049777;28;20486;-80
2022/08/30 06:53:30;;;;;;;5.13;2.70;;;16.70;99.90;;;;;;5049643;28;20072;-82
2022/08/30 06:56:02;;;;;;;6.70;2.60;;;16.80;99.90;;;;;;5049990;28;20073;-80
2022/08/30 06:58:29;;;;;;;6.47;2.80;;;17.00;99.90;;;;;;5045267;28;20118;-81
2022/08/30 07:00:55;;;;;;;5.88;2.30;;;17.10;99.90;;;;;;5050166;28;20115;-81
2022/08/30 07:03:22;;;;;;;5.30;1.98;;;17.20;99.90;;;;;;5033572;28;20075;-80
2022/08/30 07:05:49;;;;;;;7.35;2.30;;;17.40;99.90;;;;;;5053145;28;20045;-80
2022/08/30 07:08:16;;;;;;;7.38;2.60;;;17.50;99.90;;;;;;5053065;28;20049;-81
2022/08/30 07:10:42;;;;;;;5.70;2.35;;;17.60;99.90;;;;;;5049150;28;20078;-83
2022/08/30 07:13:08;;;;;;;2.92;1.90;;;17.60;99.90;;;;;;5037775;28;20032;-82
2022/08/30 07:15:34;;;;;;;5.60;2.20;;;17.70;99.90;;;;;;5053838;28;20672;-81
2022/08/30 07:20:44;;;;;;;;;;;18.00;99.90;;;;;;5050092;28;20123;-82
2022/08/30 07:23:10;;;;;;;5.30;1.98;;;18.00;99.90;;;;;;5035788;28;20003;-79
2022/08/30 07:25:37;;;;;;;3.40;1.88;;;18.20;99.90;;;;;;5050911;28;20044;-80
2022/08/30 07:28:04;;;;;;;3.58;1.80;;;18.30;99.90;;;;;;5042183;28;20068;-82
2022/08/30 07:30:30;;;;;;;9.93;1.52;;;18.40;99.90;;;;;;5052608;28;20040;-81
2022/08/30 07:32:56;;;;;;;2.63;1.70;;;18.50;99.90;;;;;;5029806;28;20068;-81
2022/08/30 07:35:22;;;;;;;3.35;1.40;;;18.60;99.90;;;;;;5050764;28;20045;-81
2022/08/30 07:37:48;;;;;;;6.43;1.63;;;18.70;99.90;;;;;;5051724;28;20047;-82
2022/08/30 07:40:14;;;;;;;3.75;1.60;;;18.80;99.90;;;;;;5051806;28;20112;-80
2022/08/30 07:42:39;;;;;;;3.15;1.73;;;18.90;99.90;;;;;;5054400;28;20090;-81
2022/08/30 07:45:07;;;;;;;2.53;1.30;;;18.90;99.90;;;;;;5052865;28;20110;-84
2022/08/30 07:47:33;;;;;;;6.97;1.73;;;19.00;99.90;;;;;;5054081;28;20049;-82
2022/08/30 07:49:59;;;;;;;5.72;1.38;;;19.10;99.90;;;;;;5053707;28;20029;-82
2022/08/30 07:52:26;;;;;;;3.13;1.33;;;19.20;99.90;;;;;;5035829;28;20453;-82
2022/08/30 07:54:53;;;;;;;1.73;1.10;;;19.20;99.90;;;;;;5053942;28;20051;-82
2022/08/30 07:57:19;;;;;;;4.30;1.35;;;19.30;99.90;;;;;;5054657;28;20103;-82
2022/08/30 07:59:45;;;;;;;2.38;1.23;;;19.40;99.90;;;;;;5054391;28;20041;-82
2022/08/30 08:02:10;;;;;;;4.00;1.20;;;19.40;99.90;;;;;;5024388;28;20041;-80
2022/08/30 08:04:36;;;;;;;4.65;1.15;;;19.50;99.90;;;;;;5033955;28;20397;-83
2022/08/30 08:07:02;;;;;;;2.45;1.10;;;19.60;99.90;;;;;;5017327;28;20044;-79
2022/08/30 08:09:28;;;;;;;3.22;1.30;;;19.70;99.90;;;;;;5048170;28;20068;-82
2022/08/30 08:11:54;;;;;;;2.83;1.10;;;19.80;99.90;;;;;;5052748;28;20072;-82
2022/08/30 08:14:20;;;;;;;1.95;1.00;;;19.90;99.90;;;;;;5053275;28;20047;-81
2022/08/30 08:16:47;;;;;;;2.03;1.10;;;20.00;99.90;;;;;;5050523;28;20037;-81
2022/08/30 08:19:12;;;;;;;2.58;1.05;;;20.00;99.90;;;;;;5053496;28;20384;-81
2022/08/30 08:21:38;;;;;;;2.17;1.00;;;20.20;99.90;;;;;;5050205;28;20043;-81
2022/08/30 08:24:04;;;;;;;4.78;1.38;;;20.20;99.90;;;;;;5049863;28;20052;-82
2022/08/30 08:26:32;;;;;;;2.40;1.13;;;20.20;99.90;;;;;;5050896;28;20515;-82
2022/08/30 08:28:57;;;;;;;2.97;1.10;;;20.20;99.90;;;;;;5053716;28;20041;-81
2022/08/30 08:31:25;;;;;;;6.90;1.30;;;20.40;99.90;;;;;;5045919;28;20498;-83
2022/08/30 08:33:51;;;;;;;3.65;1.20;;;20.40;99.90;;;;;;5038776;28;20503;-79
2022/08/30 08:36:17;;;;;;;3.20;1.05;;;20.40;99.90;;;;;;5045698;28;20052;-83
2022/08/30 08:38:43;;;;;;;1.85;1.00;;;20.40;99.90;;;;;;5048176;28;20470;-82
2022/08/30 08:41:20;;;;;;;3.40;1.13;;;20.30;99.90;;;;;;5053350;28;20071;-81
2022/08/30 08:43:46;;;;;;;2.63;1.13;;;20.30;99.90;;;;;;5045384;28;20037;-80
2022/08/30 08:46:14;;;;;;;2.75;1.08;;;20.50;99.90;;;;;;5051689;28;20052;-80
2022/08/30 08:48:51;;;;;;;3.33;1.45;;;20.70;99.90;;;;;;5052085;28;20052;-81
2022/08/30 08:54:13;;;;;;;2.95;0.90;;;21.10;99.90;;;;;;5046237;28;20656;-83
2022/08/30 08:56:39;;;;;;;4.90;1.10;;;21.20;99.90;;;;;;5051790;28;20059;-85
2022/08/30 08:59:10;;;;;;;4.35;1.08;;;21.20;99.90;;;;;;5052034;28;20112;-84
2022/08/30 09:01:37;;;;;;;2.88;1.27;;;21.20;99.90;;;;;;5050965;28;20449;-80
2022/08/30 09:04:10;;;;;;;2.42;1.15;;;20.90;99.90;;;;;;5050322;28;20412;-81
2022/08/30 09:06:57;;;;;;;6.83;1.30;;;20.70;99.90;;;;;;5032994;28;20388;-80
2022/08/30 09:09:28;;;;;;;3.83;1.13;;;20.60;99.90;;;;;;5049899;28;20045;-82
2022/08/30 09:11:53;;;;;;;3.22;1.10;;;20.50;99.90;;;;;;5046862;28;20122;-82
2022/08/30 09:14:23;;;;;;;2.45;0.88;;;20.60;99.90;;;;;;5051380;28;20041;-81
2022/08/30 09:17:06;;;;;;;2.28;1.13;;;20.60;99.90;;;;;;5051703;28;20045;-81
2022/08/30 09:19:44;;;;;;;4.80;1.42;;;20.70;99.90;;;;;;5048345;28;20075;-81
2022/08/30 09:22:42;;;;;;;3.92;1.30;;;20.80;99.90;;;;;;5049803;28;20036;-81
2022/08/30 09:25:11;;;;;;;3.90;1.20;;;20.90;99.90;;;;;;5042105;28;20087;-83
2022/08/30 09:27:42;;;;;;;3.38;1.20;;;21.10;99.90;;;;;;5049258;28;20044;-81
2022/08/30 09:30:13;;;;;;;3.05;1.02;;;21.10;99.90;;;;;;5041133;28;20128;-86
2022/08/30 09:33:01;;;;;;;1.67;1.10;;;21.20;99.90;;;;;;5050728;28;20059;-83
2022/08/30 09:35:39;;;;;;;1.83;1.20;;;21.30;99.90;;;;;;5045240;28;20053;-80
2022/08/30 09:38:09;;;;;;;2.85;1.20;;;21.30;99.90;;;;;;5046829;28;20041;-81
2022/08/30 09:40:47;;;;;;;2.85;1.15;;;21.40;99.90;;;;;;5031151;28;20048;-82
2022/08/30 09:43:15;;;;;;;2.00;1.00;;;21.50;99.90;;;;;;5034736;28;20500;-82
2022/08/30 09:45:46;;;;;;;2.10;0.73;;;21.30;99.90;;;;;;5059897;28;20612;-83
2022/08/30 09:48:31;;;;;;;3.10;1.35;;;21.20;99.90;;;;;;5051317;28;20037;-82
2022/08/30 09:51:09;;;;;;;2.22;1.20;;;21.20;99.90;;;;;;5050332;28;20482;-82
2022/08/30 09:53:43;;;;;;;2.97;1.02;;;21.20;99.90;;;;;;5031060;28;20083;-82
2022/08/30 09:56:23;;;;;;;4.07;1.15;;;21.00;99.90;;;;;;5043918;28;20083;-81
2022/08/30 09:59:08;;;;;;;4.18;1.10;;;20.90;99.90;;;;;;5046386;28;20116;-84
2022/08/30 10:01:40;;;;;;;4.05;1.10;;;21.00;99.90;;;;;;5045575;28;20033;-82
2022/08/30 10:04:30;;;;;;;2.33;0.95;;;21.10;99.90;;;;;;5047719;28;20079;-83
2022/08/30 10:07:07;;;;;;;2.05;0.90;;;21.10;99.90;;;;;;5033384;28;20029;-82
2022/08/30 10:09:37;;;;;;;2.08;1.00;;;21.00;99.90;;;;;;5047571;28;20041;-84
2022/08/30 10:12:14;;;;;;;3.17;1.10;;;21.00;99.90;;;;;;5034680;28;20041;-83
2022/08/30 10:15:07;;;;;;;1.73;0.90;;;21.10;99.90;;;;;;5049687;28;20094;-85
2022/08/30 10:17:55;;;;;;;2.20;1.00;;;21.10;99.90;;;;;;5049790;28;20055;-83
2022/08/30 10:20:30;;;;;;;1.95;0.90;;;21.10;99.90;;;;;;5049357;28;20077;-85
2022/08/30 10:22:59;;;;;;;4.18;1.00;;;21.00;99.90;;;;;;5047756;28;20082;-84
2022/08/30 10:25:27;;;;;;;3.25;1.20;;;21.20;99.90;;;;;;5049613;28;20044;-84
2022/08/30 10:28:02;;;;;;;1.83;1.00;;;21.50;99.90;;;;;;5049768;28;20468;-84
2022/08/30 10:30:32;;;;;;;1.98;0.82;;;21.70;99.90;;;;;;5047510;28;20045;-85
2022/08/30 10:33:06;;;;;;;1.90;0.75;;;21.70;99.70;;;;;;5030905;28;20036;-85
2022/08/30 10:35:43;;;;;;;3.50;1.00;;;21.80;99.90;;;;;;5049858;28;20713;-85
2022/08/30 10:38:25;;;;;;;1.65;0.80;;;22.00;99.90;;;;;;5047822;28;20400;-85
2022/08/30 10:41:12;;;;;;;2.35;1.10;;;22.20;99.90;;;;;;5037709;28;20041;-83
2022/08/30 10:43:59;;;;;;;3.05;0.93;;;22.50;99.90;;;;;;5026242;28;20414;-84
2022/08/30 10:46:56;;;;;;;3.30;0.80;;;22.80;98.70;;;;;;5035825;28;20102;-86
2022/08/30 10:49:27;;;;;;;1.98;0.90;;;23.00;99.60;;;;;;5051358;28;20037;-83
2022/08/30 10:52:07;;;;;;;2.13;1.10;;;23.10;99.30;;;;;;5037608;28;20032;-81
2022/08/30 10:54:43;;;;;;;3.03;1.00;;;22.80;97.70;;;;;;5054108;28;20052;-83
2022/08/30 10:57:09;;;;;;;3.22;0.98;;;22.80;97.90;;;;;;5047231;28;20083;-84
2022/08/30 10:59:43;;;;;;;2.35;1.00;;;22.60;98.40;;;;;;5052926;28;20575;-83
2022/08/30 11:02:43;;;;;;;2.10;1.00;;;22.50;98.50;;;;;;5048061;28;20029;-84
2022/08/30 11:05:50;;;;;;;2.53;1.00;;;22.50;98.70;;;;;;5050438;28;20045;-84
2022/08/30 11:08:23;;;;;;;1.90;0.85;;;22.70;98.40;;;;;;5046449;28;20760;-84
2022/08/30 11:11:20;;;;;;;1.70;0.80;;;22.90;98.30;;;;;;5054162;28;20041;-83
2022/08/30 11:13:47;;;;;;;2.70;0.93;;;23.10;97.50;;;;;;5053100;28;20082;-83
2022/08/30 11:16:15;;;;;;;3.20;0.93;;;23.30;97.40;;;;;;5053676;28;20037;-83
2022/08/30 11:18:48;;;;;;;1.98;0.90;;;23.40;97.00;;;;;;5054721;28;20043;-85
2022/08/30 11:21:31;;;;;;;3.13;1.00;;;23.70;96.90;;;;;;5053031;28;20124;-83
2022/08/30 11:24:00;;;;;;;4.35;0.90;;;23.90;96.60;;;;;;5030597;28;20041;-83
2022/08/30 11:26:43;;;;;;;5.07;1.20;;;24.20;96.60;;;;;;5052550;28;20090;-84
2022/08/30 11:29:26;;;;;;;;;;;24.40;96.60;;;;;;5054752;28;20033;-81
2022/08/30 11:31:54;;;;;;;2.05;0.80;;;24.40;95.70;;;;;;5052553;28;19956;-83
2022/08/30 11:34:44;;;;;;;1.40;0.70;;;24.40;95.30;;;;;;5020652;28;20045;-83
2022/08/30 11:37:37;;;;;;;1.85;0.70;;;24.40;94.90;;;;;;5017124;28;20037;-84
2022/08/30 11:40:08;;;;;;;3.40;0.90;;;24.50;94.80;;;;;;5039254;28;20038;-83
2022/08/30 11:42:41;;;;;;;3.10;0.80;;;24.60;94.50;;;;;;5053792;28;20056;-82
2022/08/30 11:45:22;;;;;;;1.58;0.75;;;24.60;94.00;;;;;;5052913;28;20080;-82
2022/08/30 11:47:48;;;;;;;3.35;0.90;;;24.40;93.70;;;;;;5031111;28;20044;-85
2022/08/30 11:50:34;;;;;;;2.95;0.80;;;24.40;93.80;;;;;;5051220;28;20036;-85
2022/08/30 11:53:20;;;;;;;2.13;0.70;;;24.60;93.70;;;;;;5046479;28;20035;-86
2022/08/30 11:55:59;;;;;;;2.90;1.02;;;24.80;93.50;;;;;;5042518;28;20119;-82
2022/08/30 11:58:48;;;;;;;2.35;0.80;;;24.90;93.40;;;;;;5053433;28;20076;-82
2022/08/30 12:01:31;;;;;;;2.88;0.90;;;25.10;93.10;;;;;;5054591;28;20063;-82
2022/08/30 12:04:02;;;;;;;3.15;0.93;;;25.20;92.10;;;;;;5051407;28;20072;-82
2022/08/30 12:06:40;;;;;;;3.20;0.90;;;25.40;93.00;;;;;;5053225;28;20037;-83
2022/08/30 12:09:27;;;;;;;3.58;0.95;;;25.60;92.90;;;;;;5035924;28;20037;-83
2022/08/30 12:11:59;;;;;;;2.42;0.85;;;25.70;92.90;;;;;;5025852;28;20040;-83
2022/08/30 12:14:36;;;;;;;2.10;0.90;;;26.00;92.40;;;;;;5053608;28;20029;-85
2022/08/30 12:20:18;;;;;;;2.47;0.90;;;25.90;91.80;;;;;;5046777;28;20073;-82
2022/08/30 12:22:44;;;;;;;2.35;0.90;;;26.00;90.80;;;;;;5052179;28;20049;-82
2022/08/30 12:25:25;;;;;;;1.60;0.80;;;26.00;91.70;;;;;;5052845;28;20033;-82
2022/08/30 12:28:11;;;;;;;2.83;0.93;;;26.10;91.80;;;;;;5055041;28;20033;-80
2022/08/30 12:30:38;;;;;;;1.40;0.70;;;26.20;91.40;;;;;;5053485;28;20040;-81
2022/08/30 12:33:05;;;;;;;1.77;0.95;;;26.30;91.30;;;;;;5038415;28;20061;-82
2022/08/30 12:35:31;;;;;;;2.08;0.90;;;26.30;91.40;;;;;;5050317;28;20044;-79
2022/08/30 12:38:07;;;;;;;0.77;0.60;;;26.40;91.30;;;;;;5052749;28;20411;-82
2022/08/30 12:40:36;;;;;;;1.42;0.80;;;26.30;90.80;;;;;;5038024;28;20072;-80
2022/08/30 12:43:04;;;;;;;1.90;0.70;;;26.40;90.90;;;;;;5050983;28;20036;-81
2022/08/30 12:45:36;;;;;;;3.58;1.00;;;26.60;90.70;;;;;;5055868;28;20044;-81
2022/08/30 12:48:04;;;;;;;3.50;0.85;;;26.70;90.80;;;;;;5056425;28;20033;-81
2022/08/30 12:50:34;;;;;;;3.03;0.90;;;26.70;90.50;;;;;;5054993;28;20140;-82
2022/08/30 12:53:07;;;;;;;3.83;1.08;;;26.40;90.40;;;;;;5051876;28;20052;-82
2022/08/30 12:55:47;;;;;;;1.60;0.90;;;25.90;90.60;;;;;;5034890;28;20033;-81
2022/08/30 12:58:13;;;;;;;1.60;0.88;;;25.80;90.60;;;;;;5042058;28;20568;-80
2022/08/30 13:00:42;;;;;;;2.38;1.02;;;25.80;90.70;;;;;;5054643;28;20049;-82
2022/08/30 13:03:31;;;;;;;3.00;0.80;;;25.90;90.80;;;;;;5036108;28;20067;-81
2022/08/30 13:08:41;;;;;;;2.03;0.93;;;26.70;90.40;;;;;;5135133;27;20340;-82
2022/08/30 13:11:19;;;;;;;2.00;0.88;;;26.50;89.00;;;;;;5121995;28;20066;-82
2022/08/30 13:13:47;;;;;;;1.85;0.80;;;26.60;89.50;;;;;;5122227;28;20500;-81